Time;durP1;ratioP1;P1;durP2;ratioP2;P2;SDS_P1;SDS_P2;PMS_P1;PMS_P2;Temp;Humidity;BMP_temperature;BMP_pressure;BME280_temperature;BME280_humidity;BME280_pressure;Samples;Min_cycle;Max_cycle;Signal;HPM_P1;HPM_P2
2022/02/17 00:00:01;;;;;;;1.23;0.47;;;;;;;12.61;97.08;96834.66;4207212;28;20669;-83
2022/02/17 00:02:16;;;;;;;1.40;0.50;;;;;;;12.62;97.17;96836.31;4203766;28;21210;-83
2022/02/17 00:04:19;;;;;;;1.10;0.40;;;;;;;12.63;95.75;96819.63;4175341;28;20633;-83
2022/02/17 00:06:22;;;;;;;1.60;0.50;;;;;;;12.66;96.50;96816.72;4205210;28;21282;-83
2022/02/17 00:08:25;;;;;;;0.90;0.40;;;;;;;12.66;96.29;96822.78;4206944;28;20651;-82
2022/02/17 00:10:29;;;;;;;1.40;0.40;;;;;;;12.65;95.68;96813.28;4174590;28;21235;-83
2022/02/17 00:12:32;;;;;;;1.10;0.40;;;;;;;12.69;95.35;96817.25;4181555;28;20654;-83
2022/02/17 00:14:35;;;;;;;1.00;0.40;;;;;;;12.72;95.04;96816.97;4193686;28;20721;-83
2022/02/17 00:16:38;;;;;;;0.93;0.40;;;;;;;12.71;95.06;96803.03;4206128;28;20636;-83
2022/02/17 00:18:43;;;;;;;1.20;0.40;;;;;;;12.73;95.01;96801.13;4188691;28;20624;-83
2022/02/17 00:20:49;;;;;;;0.90;0.30;;;;;;;12.73;93.89;96805.50;4190568;28;20680;-83
2022/02/17 00:22:52;;;;;;;1.10;0.40;;;;;;;12.75;95.26;96799.16;4172613;28;20641;-83
2022/02/17 00:24:55;;;;;;;1.27;0.60;;;;;;;12.76;93.90;96779.03;4201244;28;20647;-83
2022/02/17 00:26:58;;;;;;;1.10;0.40;;;;;;;12.76;93.73;96779.88;4186340;28;20647;-83
2022/02/17 00:29:01;;;;;;;1.17;0.40;;;;;;;12.76;93.65;96766.81;4175411;28;20713;-83
2022/02/17 00:31:04;;;;;;;0.93;0.30;;;;;;;12.79;93.94;96769.13;4186888;28;20632;-83
2022/02/17 00:33:07;;;;;;;1.10;0.40;;;;;;;12.86;93.31;96759.72;4172296;28;20633;-83
2022/02/17 00:35:12;;;;;;;1.37;0.80;;;;;;;12.90;92.48;96768.06;4189640;28;20648;-84
2022/02/17 00:37:15;;;;;;;1.07;0.40;;;;;;;12.93;91.60;96771.22;4174532;28;20626;-83
2022/02/17 00:39:18;;;;;;;1.10;0.40;;;;;;;12.98;91.04;96782.06;4204949;28;20670;-84
2022/02/17 00:41:23;;;;;;;0.90;0.30;;;;;;;13.04;90.89;96754.47;4172615;28;20640;-84
2022/02/17 00:43:29;;;;;;;1.00;0.30;;;;;;;13.11;90.68;96772.03;4187520;28;20665;-83
2022/02/17 00:45:32;;;;;;;1.20;0.40;;;;;;;13.14;90.26;96768.25;4175866;28;20640;-85
2022/02/17 00:47:35;;;;;;;1.10;0.40;;;;;;;13.20;89.31;96758.03;4186492;28;20627;-83
2022/02/17 00:49:39;;;;;;;1.00;0.40;;;;;;;13.27;89.53;96767.69;4187172;28;20720;-83
2022/02/17 00:51:44;;;;;;;1.10;0.40;;;;;;;13.30;89.59;96761.34;4188358;28;20675;-83
2022/02/17 00:53:50;;;;;;;1.30;0.40;;;;;;;13.32;90.01;96756.75;4192000;28;20635;-84
2022/02/17 00:55:53;;;;;;;1.00;0.33;;;;;;;13.28;90.13;96756.25;4175188;28;20636;-83
2022/02/17 00:57:56;;;;;;;1.00;0.30;;;;;;;13.25;89.86;96753.94;4192659;28;20632;-83
2022/02/17 01:00:02;;;;;;;0.93;0.40;;;;;;;13.22;90.65;96766.53;4172235;28;20658;-83
2022/02/17 01:02:08;;;;;;;1.00;0.30;;;;;;;13.23;90.44;96753.28;4172635;28;20703;-83
2022/02/17 01:04:11;;;;;;;1.00;0.40;;;;;;;13.24;90.98;96743.63;4189957;28;20663;-83
2022/02/17 01:06:15;;;;;;;1.63;0.30;;;;;;;13.27;90.03;96767.69;4190099;28;20615;-84
2022/02/17 01:08:19;;;;;;;1.00;0.30;;;;;;;13.29;90.89;96772.78;4190500;28;20658;-83
2022/02/17 01:10:22;;;;;;;1.07;0.40;;;;;;;13.25;90.99;96788.00;4179389;28;20634;-81
2022/02/17 01:12:26;;;;;;;1.00;0.40;;;;;;;13.28;90.48;96798.16;4188422;28;20640;-83
2022/02/17 01:14:29;;;;;;;1.00;0.30;;;;;;;13.31;90.37;96799.66;4191645;28;20758;-83
2022/02/17 01:16:33;;;;;;;1.10;0.40;;;;;;;13.30;90.95;96790.16;4176111;28;20651;-83
2022/02/17 01:18:45;;;;;;;1.00;0.30;;;;;;;13.29;90.65;96802.44;4176565;28;20736;-83
2022/02/17 01:20:53;;;;;;;1.10;0.30;;;;;;;13.29;91.38;96804.22;4189119;28;20636;-83
2022/02/17 01:22:57;;;;;;;1.00;0.40;;;;;;;13.31;91.04;96800.47;4188732;28;20635;-83
2022/02/17 01:25:01;;;;;;;0.97;0.30;;;;;;;13.28;91.22;96773.78;4172943;28;21230;-83
2022/02/17 01:27:05;;;;;;;1.00;0.30;;;;;;;13.26;91.74;96773.94;4209036;28;20635;-83
2022/02/17 01:29:09;;;;;;;1.00;0.30;;;;;;;13.18;92.11;96767.00;4174520;28;20657;-83
2022/02/17 01:31:13;;;;;;;1.30;0.40;;;;;;;13.17;92.93;96773.19;4191311;28;20632;-83
2022/02/17 01:33:16;;;;;;;1.77;0.37;;;;;;;13.18;92.37;96770.41;4190243;28;20624;-83
2022/02/17 01:35:28;;;;;;;0.90;0.30;;;;;;;13.19;92.22;96772.88;4184344;28;20628;-83
2022/02/17 01:37:37;;;;;;;0.90;0.30;;;;;;;13.15;92.30;96780.38;4175239;28;21012;-83
2022/02/17 01:39:40;;;;;;;1.00;0.30;;;;;;;13.11;92.99;96772.03;4173665;28;20640;-83
2022/02/17 01:41:48;;;;;;;0.90;0.20;;;;;;;13.16;92.63;96775.00;4173183;28;20628;-83
2022/02/17 01:44:02;;;;;;;1.10;0.30;;;;;;;13.09;93.04;96778.38;4174203;28;20638;-83
2022/02/17 01:46:06;;;;;;;1.00;0.40;;;;;;;13.11;93.11;96779.03;4190271;28;20750;-83
2022/02/17 01:48:09;;;;;;;1.00;0.30;;;;;;;13.07;93.25;96773.28;4175375;28;20664;-83
2022/02/17 01:50:15;;;;;;;0.90;0.30;;;;;;;13.07;94.25;96762.81;4171695;28;20639;-83
2022/02/17 01:52:19;;;;;;;1.00;0.30;;;;;;;13.02;93.83;96770.31;4192615;28;20632;-83
2022/02/17 01:54:22;;;;;;;0.90;0.30;;;;;;;13.03;94.44;96787.66;4192638;28;21396;-83
2022/02/17 01:56:26;;;;;;;1.00;0.33;;;;;;;13.00;94.10;96787.94;4171527;28;20614;-83
2022/02/17 01:58:37;;;;;;;2.03;0.40;;;;;;;12.95;95.45;96778.94;4193889;28;20641;-83
2022/02/17 02:00:50;;;;;;;0.90;0.30;;;;;;;12.92;94.80;96774.81;4176794;28;20635;-84
2022/02/17 02:02:57;;;;;;;1.40;0.40;;;;;;;12.92;95.45;96790.50;4173830;28;20628;-83
2022/02/17 02:05:19;;;;;;;1.00;0.30;;;;;;;12.88;95.25;96786.53;4191175;28;20735;-83
2022/02/17 02:07:22;;;;;;;0.90;0.30;;;;;;;12.87;95.64;96776.22;4189747;28;20631;-84
2022/02/17 02:09:26;;;;;;;1.00;0.30;;;;;;;12.89;94.90;96759.41;4177690;28;20653;-83
2022/02/17 02:11:48;;;;;;;1.00;0.30;;;;;;;12.83;94.92;96767.03;4191780;28;21227;-83
2022/02/17 02:13:54;;;;;;;1.00;0.30;;;;;;;12.74;95.39;96763.50;4207518;28;20688;-83
2022/02/17 02:15:59;;;;;;;1.00;0.30;;;;;;;12.74;95.36;96760.88;4188835;28;21023;-83
2022/02/17 02:18:02;;;;;;;1.77;0.70;;;;;;;12.73;95.82;96743.56;4193024;28;20735;-83
2022/02/17 02:20:07;;;;;;;1.00;0.30;;;;;;;12.71;96.34;96748.09;4177079;28;20643;-82
2022/02/17 02:22:12;;;;;;;1.00;0.40;;;;;;;12.66;97.30;96757.38;4190161;28;20669;-83
2022/02/17 02:24:16;;;;;;;2.03;0.70;;;;;;;12.66;97.30;96751.31;4191389;28;20639;-83
2022/02/17 02:26:20;;;;;;;1.00;0.40;;;;;;;12.67;96.98;96743.31;4179745;28;20704;-83
2022/02/17 02:28:25;;;;;;;1.77;0.40;;;;;;;12.64;97.34;96748.03;4189091;28;20635;-83
2022/02/17 02:30:28;;;;;;;1.00;0.33;;;;;;;12.54;97.82;96749.88;4206844;28;20630;-82
2022/02/17 02:32:31;;;;;;;1.63;0.37;;;;;;;12.57;97.91;96749.59;4179557;28;21243;-83
2022/02/17 02:34:35;;;;;;;0.90;0.30;;;;;;;12.48;96.80;96748.72;4190231;28;20787;-83
2022/02/17 02:36:38;;;;;;;1.20;0.40;;;;;;;12.51;97.43;96756.25;4187597;28;20748;-83
2022/02/17 02:38:42;;;;;;;0.90;0.40;;;;;;;12.47;98.40;96754.09;4192196;28;21227;-83
2022/02/17 02:40:46;;;;;;;1.10;0.30;;;;;;;12.42;97.59;96759.75;4176139;28;20676;-84
2022/02/17 02:43:04;;;;;;;0.90;0.30;;;;;;;12.46;98.24;96755.06;4174965;28;20637;-83
2022/02/17 02:45:09;;;;;;;1.10;0.40;;;;;;;12.39;97.48;96754.84;4189959;28;20638;-83
2022/02/17 02:47:12;;;;;;;3.03;0.50;;;;;;;12.35;99.46;96716.88;4192105;28;20641;-83
2022/02/17 02:49:16;;;;;;;1.10;0.50;;;;;;;12.34;98.53;96714.41;4190585;28;21226;-91
2022/02/17 02:51:20;;;;;;;1.03;0.50;;;;;;;12.31;99.17;96712.09;4192318;28;20804;-89
2022/02/17 02:53:23;;;;;;;1.60;0.40;;;;;;;12.29;99.34;96721.88;4189688;28;20652;-92
2022/02/17 02:55:28;;;;;;;1.00;0.30;;;;;;;12.26;99.18;96728.22;4191153;28;20739;-88
2022/02/17 02:57:31;;;;;;;0.90;0.40;;;;;;;12.26;99.28;96727.41;4178290;28;20627;-92
2022/02/17 02:59:36;;;;;;;1.00;0.40;;;;;;;12.25;98.97;96716.13;4191396;28;20748;-91
2022/02/17 03:01:43;;;;;;;0.93;0.30;;;;;;;12.25;99.97;96713.53;4208005;28;20687;-91
2022/02/17 03:03:49;;;;;;;1.07;0.40;;;;;;;12.24;98.42;96703.22;4193534;28;20627;-89
2022/02/17 03:05:52;;;;;;;1.57;0.40;;;;;;;12.20;99.36;96698.44;4193561;28;20637;-91
2022/02/17 03:07:55;;;;;;;0.90;0.30;;;;;;;12.21;98.61;96698.28;4177900;28;20647;-87
2022/02/17 03:09:59;;;;;;;0.90;0.30;;;;;;;12.22;99.83;96693.88;4174442;28;20658;-89
2022/02/17 03:12:05;;;;;;;0.90;0.37;;;;;;;12.20;100.00;96699.25;4205732;28;20671;-90
2022/02/17 03:14:09;;;;;;;0.90;0.30;;;;;;;12.18;100.00;96692.50;4190810;28;21065;-90
2022/02/17 03:16:13;;;;;;;1.53;0.37;;;;;;;12.17;99.18;96701.34;4177868;28;20647;-92
2022/02/17 03:18:16;;;;;;;0.90;0.40;;;;;;;12.18;99.93;96690.75;4176831;28;20732;-89
2022/02/17 03:20:20;;;;;;;1.53;0.30;;;;;;;12.20;99.84;96704.47;4193206;28;20624;-90
2022/02/17 03:22:23;;;;;;;0.90;0.40;;;;;;;12.18;99.44;96697.75;4175723;28;20668;-92
2022/02/17 03:24:28;;;;;;;6.10;0.50;;;;;;;12.21;98.84;96700.91;4176320;28;20623;-91
2022/02/17 03:26:32;;;;;;;0.83;0.30;;;;;;;12.22;100.00;96710.38;4177440;28;20724;-92
2022/02/17 03:28:37;;;;;;;0.90;0.33;;;;;;;12.24;99.25;96695.38;4175895;28;20654;-91
2022/02/17 03:30:41;;;;;;;0.80;0.30;;;;;;;12.27;99.69;96701.13;4191975;28;20652;-89
2022/02/17 03:32:54;;;;;;;0.90;0.30;;;;;;;12.30;98.30;96707.84;4205375;28;20641;-90
2022/02/17 03:34:58;;;;;;;0.90;0.30;;;;;;;12.29;97.71;96696.56;4192298;28;20632;-91
2022/02/17 03:37:07;;;;;;;1.00;0.40;;;;;;;12.27;99.50;96692.47;4180769;28;20687;-89
2022/02/17 03:39:14;;;;;;;0.90;0.30;;;;;;;12.31;98.19;96701.63;4190345;28;21256;-89
2022/02/17 03:41:34;;;;;;;0.90;0.30;;;;;;;12.34;99.12;96694.34;4179934;28;20664;-92
2022/02/17 03:43:47;;;;;;;0.90;0.30;;;;;;;12.35;97.80;96705.59;4177632;28;20631;-91
2022/02/17 03:45:57;;;;;;;1.27;0.43;;;;;;;12.41;97.99;96690.13;4175940;28;20630;-91
2022/02/17 03:48:02;;;;;;;0.97;0.37;;;;;;;12.44;97.22;96689.03;4180690;28;20633;-92
2022/02/17 03:50:07;;;;;;;0.90;0.30;;;;;;;12.44;96.87;96681.97;4178906;28;20764;-91
2022/02/17 03:52:11;;;;;;;1.10;0.50;;;;;;;12.47;98.40;96699.19;4177269;28;20651;-90
2022/02/17 03:54:15;;;;;;;1.00;0.40;;;;;;;12.52;98.62;96691.69;4192898;28;20630;-90
2022/02/17 03:56:28;;;;;;;1.00;0.40;;;;;;;12.52;98.02;96695.13;4189911;28;20676;-88
2022/02/17 03:59:03;;;;;;;1.00;0.37;;;;;;;12.57;97.27;96692.06;4185331;28;20637;-87
2022/02/17 04:01:13;;;;;;;0.97;0.40;;;;;;;12.59;97.68;96704.03;4190342;28;20651;-91
2022/02/17 04:03:20;;;;;;;1.00;0.40;;;;;;;12.60;96.87;96705.66;4197936;28;20625;-92
2022/02/17 04:05:25;;;;;;;0.90;0.30;;;;;;;12.63;97.23;96715.00;4174355;28;20660;-91
2022/02/17 04:07:43;;;;;;;0.90;0.30;;;;;;;12.65;97.48;96711.25;4210710;28;20722;-91
2022/02/17 04:10:00;;;;;;;1.10;0.30;;;;;;;12.61;97.57;96689.00;4174927;28;20656;-89
2022/02/17 04:12:05;;;;;;;0.90;0.30;;;;;;;12.61;98.61;96693.41;4197048;28;21402;-91
2022/02/17 04:14:12;;;;;;;0.90;0.30;;;;;;;12.64;97.80;96695.72;4179066;28;20656;-91
2022/02/17 04:16:20;;;;;;;0.90;0.30;;;;;;;12.64;97.25;96708.78;4179513;28;20627;-90
2022/02/17 04:18:42;;;;;;;0.90;0.33;;;;;;;12.69;97.22;96702.97;4173346;28;20620;-92
2022/02/17 04:20:55;;;;;;;0.90;0.30;;;;;;;12.77;96.19;96737.03;4174986;28;21215;-89
2022/02/17 04:23:25;;;;;;;1.37;0.40;;;;;;;12.80;96.26;96735.91;4186671;28;20920;-92
2022/02/17 04:25:29;;;;;;;0.90;0.30;;;;;;;12.75;98.30;96739.00;4193734;28;20668;-88
2022/02/17 04:27:33;;;;;;;0.90;0.30;;;;;;;12.70;97.40;96733.41;4206085;28;21192;-91
2022/02/17 04:29:42;;;;;;;1.63;0.30;;;;;;;12.70;97.88;96741.25;4175601;28;20636;-91
2022/02/17 04:31:47;;;;;;;1.00;0.40;;;;;;;12.70;97.83;96720.31;4193795;28;21835;-91
2022/02/17 04:33:50;;;;;;;0.93;0.30;;;;;;;12.72;96.65;96725.41;4192582;28;20635;-92
2022/02/17 04:35:56;;;;;;;0.90;0.30;;;;;;;12.71;96.97;96708.84;4206475;28;20614;-90
2022/02/17 04:37:59;;;;;;;1.30;0.30;;;;;;;12.76;95.87;96705.78;4170580;28;20626;-91
2022/02/17 04:40:03;;;;;;;1.00;0.40;;;;;;;12.82;96.40;96698.22;4170180;28;21029;-91
2022/02/17 04:42:18;;;;;;;1.20;0.30;;;;;;;12.85;96.58;96726.69;4189115;28;20646;-89
2022/02/17 04:44:26;;;;;;;1.27;0.30;;;;;;;12.84;96.81;96721.59;4172196;28;20645;-91
2022/02/17 04:46:36;;;;;;;1.93;0.30;;;;;;;12.86;97.71;96744.00;4176220;28;20655;-90
2022/02/17 04:48:39;;;;;;;1.00;0.30;;;;;;;12.86;96.82;96741.38;4174514;28;20678;-92
2022/02/17 04:50:46;;;;;;;1.00;0.30;;;;;;;12.88;97.40;96721.13;4176275;28;20649;-91
2022/02/17 04:52:49;;;;;;;0.97;0.30;;;;;;;12.85;96.19;96734.53;4191997;28;21071;-89
2022/02/17 04:54:53;;;;;;;0.90;0.30;;;;;;;12.85;97.36;96736.31;4192374;28;20646;-87
2022/02/17 04:56:56;;;;;;;0.90;0.30;;;;;;;12.89;96.45;96735.84;4194328;28;20734;-89
2022/02/17 04:59:05;;;;;;;1.00;0.40;;;;;;;12.87;96.11;96753.50;4190228;28;20635;-91
2022/02/17 05:01:15;;;;;;;1.23;0.40;;;;;;;12.89;96.37;96748.13;4176993;28;20626;-89
2022/02/17 05:03:28;;;;;;;1.10;0.40;;;;;;;12.90;95.87;96745.34;4191848;28;21214;-92
2022/02/17 05:06:04;;;;;;;0.90;0.30;;;;;;;12.94;96.62;96732.78;4182069;28;20637;-90
2022/02/17 05:08:09;;;;;;;1.03;0.30;;;;;;;12.92;97.10;96759.09;4174756;28;20637;-90
2022/02/17 05:10:12;;;;;;;1.00;0.30;;;;;;;12.94;96.15;96761.56;4191731;28;20636;-91
2022/02/17 05:12:21;;;;;;;0.90;0.30;;;;;;;12.93;96.13;96746.81;4176918;28;20612;-90
2022/02/17 05:14:25;;;;;;;0.90;0.27;;;;;;;12.90;97.21;96762.84;4189175;28;20690;-89
2022/02/17 05:16:31;;;;;;;1.20;0.30;;;;;;;12.91;96.26;96752.22;4200580;28;20623;-91
2022/02/17 05:18:36;;;;;;;1.00;0.30;;;;;;;12.90;96.68;96750.59;4172825;28;20693;-91
2022/02/17 05:20:43;;;;;;;1.10;0.30;;;;;;;12.95;95.45;96774.50;4188660;28;20736;-92
2022/02/17 05:23:01;;;;;;;3.10;0.40;;;;;;;12.98;95.65;96771.59;4176187;28;20648;-93
2022/02/17 05:25:28;;;;;;;1.20;0.30;;;;;;;13.01;96.04;96788.78;4190497;28;20636;-91
2022/02/17 05:27:35;;;;;;;0.90;0.30;;;;;;;13.03;94.85;96813.00;4177016;28;20641;-90
2022/02/17 05:29:51;;;;;;;1.73;0.40;;;;;;;13.06;94.99;96823.19;4192937;28;20628;-91
2022/02/17 05:32:22;;;;;;;1.03;0.57;;;;;;;13.04;95.54;96846.88;4192454;28;20631;-91
2022/02/17 05:34:39;;;;;;;0.90;0.30;;;;;;;13.03;96.71;96834.75;4182477;28;20623;-90
2022/02/17 05:37:05;;;;;;;0.90;0.30;;;;;;;12.96;96.52;96835.50;4179452;28;20631;-91
2022/02/17 05:39:30;;;;;;;1.00;0.40;;;;;;;12.91;95.46;96840.38;4178923;28;20639;-89
2022/02/17 05:41:36;;;;;;;1.20;0.50;;;;;;;12.86;95.35;96853.09;4178571;28;20714;-90
2022/02/17 05:43:39;;;;;;;2.10;0.50;;;;;;;12.87;93.90;96839.03;4170841;28;21020;-90
2022/02/17 05:45:43;;;;;;;3.80;0.53;;;;;;;12.82;93.00;96855.19;4194592;28;20638;-89
2022/02/17 05:47:46;;;;;;;2.00;0.50;;;;;;;12.77;92.57;96852.16;4178137;28;21162;-92
2022/02/17 05:49:50;;;;;;;25.17;1.77;;;;;;;12.77;93.38;96872.28;4196212;28;20710;-91
2022/02/17 05:51:53;;;;;;;3.40;0.90;;;;;;;12.76;92.45;96881.91;4190973;28;21052;-90
2022/02/17 05:53:56;;;;;;;1.57;0.63;;;;;;;12.79;92.17;96886.84;4193573;28;20637;-86
2022/02/17 05:56:00;;;;;;;3.80;0.73;;;;;;;12.77;93.17;96896.63;4205718;28;20675;-91
2022/02/17 05:58:04;;;;;;;2.87;0.77;;;;;;;12.80;92.30;96883.25;4190343;28;20634;-89
2022/02/17 06:00:09;;;;;;;2.10;0.70;;;;;;;12.76;92.13;96908.09;4207412;28;20666;-89
2022/02/17 06:02:14;;;;;;;5.77;1.30;;;;;;;12.73;89.88;96905.75;4194114;28;20636;-90
2022/02/17 06:04:17;;;;;;;3.53;1.00;;;;;;;12.72;90.44;96909.34;4207981;28;20635;-90
2022/02/17 06:06:22;;;;;;;2.53;1.00;;;;;;;12.70;90.18;96915.66;4176876;28;20652;-89
2022/02/17 06:08:27;;;;;;;3.57;1.03;;;;;;;12.66;89.25;96918.72;4175515;28;20658;-87
2022/02/17 06:10:31;;;;;;;3.57;1.17;;;;;;;12.66;89.81;96923.97;4174721;28;21212;-91
2022/02/17 06:12:41;;;;;;;3.23;0.90;;;;;;;12.64;89.64;96929.34;4191378;28;20659;-89
2022/02/17 06:14:44;;;;;;;5.40;1.27;;;;;;;12.60;88.42;96930.63;4177996;28;20628;-86
2022/02/17 06:16:48;;;;;;;3.00;0.97;;;;;;;12.61;89.76;96936.66;4207755;28;20685;-90
2022/02/17 06:18:51;;;;;;;6.40;1.40;;;;;;;12.60;89.06;96938.47;4194992;28;20710;-91
2022/02/17 06:20:55;;;;;;;4.70;1.43;;;;;;;12.63;89.63;96960.88;4196237;28;20648;-90
2022/02/17 06:23:00;;;;;;;3.30;1.40;;;;;;;12.58;87.64;96934.34;4191570;28;20648;-90
2022/02/17 06:25:03;;;;;;;3.40;1.20;;;;;;;12.62;88.51;96946.16;4191087;28;20650;-86
2022/02/17 06:27:07;;;;;;;4.27;1.30;;;;;;;12.59;89.15;96954.31;4188436;28;20690;-89
2022/02/17 06:29:10;;;;;;;3.60;1.33;;;;;;;12.57;88.95;96961.44;4187156;28;20646;-89
2022/02/17 06:31:13;;;;;;;6.53;1.80;;;;;;;12.55;88.12;96971.25;4194987;28;20652;-89
2022/02/17 06:33:17;;;;;;;8.37;1.57;;;;;;;12.53;87.99;96975.78;4180407;28;21209;-89
2022/02/17 06:35:22;;;;;;;5.47;1.10;;;;;;;12.50;88.56;96966.44;4193487;28;21237;-90
2022/02/17 06:37:26;;;;;;;3.40;1.33;;;;;;;12.48;89.27;96978.00;4191957;28;21224;-89
2022/02/17 06:39:31;;;;;;;4.83;1.20;;;;;;;12.50;88.27;96986.53;4194380;28;21004;-90
2022/02/17 06:41:35;;;;;;;5.27;1.47;;;;;;;12.52;89.50;96995.06;4177927;28;20757;-91
2022/02/17 06:43:39;;;;;;;3.83;1.40;;;;;;;12.54;88.92;96988.72;4210100;28;20645;-90
2022/02/17 06:45:43;;;;;;;4.60;1.23;;;;;;;12.55;87.35;96992.97;4178500;28;20640;-89
2022/02/17 06:47:53;;;;;;;2.70;1.47;;;;;;;12.53;88.68;97008.00;4192987;28;20647;-89
2022/02/17 06:49:56;;;;;;;6.87;1.43;;;;;;;12.56;88.05;97018.19;4188188;28;20632;-86
2022/02/17 06:52:01;;;;;;;6.43;1.50;;;;;;;12.56;87.12;97010.31;4190980;28;20766;-88
2022/02/17 06:54:04;;;;;;;6.10;1.60;;;;;;;12.54;88.58;97029.72;4205135;28;21264;-88
2022/02/17 06:56:08;;;;;;;3.47;1.50;;;;;;;12.53;87.97;97038.56;4175752;28;20632;-90
2022/02/17 06:58:12;;;;;;;8.10;1.87;;;;;;;12.51;87.69;97051.78;4195739;28;20620;-91
2022/02/17 07:00:21;;;;;;;6.60;1.73;;;;;;;12.55;87.53;97040.06;4193918;28;20635;-88
2022/02/17 07:02:24;;;;;;;5.40;1.80;;;;;;;12.53;87.93;97049.03;4191082;28;20692;-89
2022/02/17 07:04:27;;;;;;;3.23;1.33;;;;;;;12.54;88.19;97037.56;4174227;28;20657;-90
2022/02/17 07:06:31;;;;;;;4.23;1.50;;;;;;;12.55;87.32;97041.84;4194476;28;20635;-91
2022/02/17 07:08:34;;;;;;;4.40;1.67;;;;;;;12.55;87.32;97045.28;4192628;28;20622;-89
2022/02/17 07:10:55;;;;;;;7.67;2.00;;;;;;;12.57;87.08;97051.22;4176551;28;20651;-90
2022/02/17 07:13:00;;;;;;;7.33;1.87;;;;;;;12.56;85.82;97067.88;4173941;28;20665;-91
2022/02/17 07:15:04;;;;;;;6.20;1.80;;;;;;;12.56;85.85;97059.22;4191709;28;20964;-88
2022/02/17 07:17:08;;;;;;;9.00;2.10;;;;;;;12.55;86.78;97066.22;4191719;28;20618;-88
2022/02/17 07:19:11;;;;;;;8.67;1.87;;;;;;;12.57;87.27;97081.75;4190185;28;20657;-87
2022/02/17 07:21:14;;;;;;;5.83;1.70;;;;;;;12.58;85.79;97091.28;4209988;28;20631;-86
2022/02/17 07:23:18;;;;;;;6.50;1.67;;;;;;;12.62;85.67;97100.50;4190968;28;21300;-89
2022/02/17 07:25:21;;;;;;;4.80;2.00;;;;;;;12.60;85.48;97098.03;4206328;28;21011;-89
2022/02/17 07:27:25;;;;;;;5.23;1.87;;;;;;;12.61;86.04;97102.25;4192237;28;21255;-84
2022/02/17 07:29:30;;;;;;;6.30;1.70;;;;;;;12.64;85.51;97111.63;4192013;28;20634;-85
2022/02/17 07:31:33;;;;;;;3.80;1.30;;;;;;;12.59;84.57;97106.81;4190592;28;20728;-86
2022/02/17 07:33:36;;;;;;;7.07;1.70;;;;;;;12.58;84.29;97120.84;4211285;28;20662;-85
2022/02/17 07:35:39;;;;;;;7.23;1.73;;;;;;;12.59;83.74;97111.25;4194243;28;20642;-87
2022/02/17 07:38:02;;;;;;;7.43;2.17;;;;;;;12.62;83.08;97118.81;4172427;28;20621;-85
2022/02/17 07:40:06;;;;;;;6.63;2.00;;;;;;;12.62;83.13;97119.63;4183906;28;20637;-84
2022/02/17 07:42:10;;;;;;;5.80;2.00;;;;;;;12.65;82.28;97134.22;4169903;28;20638;-86
2022/02/17 07:44:13;;;;;;;5.53;1.87;;;;;;;12.85;81.89;97116.56;4195121;28;20630;-84
2022/02/17 07:46:17;;;;;;;11.23;2.07;;;;;;;12.97;80.29;97128.50;4172331;28;20727;-85
2022/02/17 07:48:21;;;;;;;9.90;2.40;;;;;;;12.94;79.75;97118.31;4169981;28;21257;-85
2022/02/17 07:50:26;;;;;;;9.00;1.90;;;;;;;13.10;78.89;97126.41;4185461;28;20659;-85
2022/02/17 07:52:29;;;;;;;8.53;2.10;;;;;;;13.30;79.39;97135.81;4188695;28;21254;-84
2022/02/17 07:54:32;;;;;;;8.00;2.30;;;;;;;13.39;77.84;97140.19;4171682;28;20636;-85
2022/02/17 07:56:35;;;;;;;7.40;2.20;;;;;;;13.58;78.13;97140.09;4207727;28;21265;-84
2022/02/17 07:58:41;;;;;;;4.57;1.80;;;;;;;13.78;78.62;97145.06;4193635;28;20636;-84
2022/02/17 08:00:44;;;;;;;5.57;2.27;;;;;;;13.91;77.04;97148.19;4193781;28;20628;-83
2022/02/17 08:02:49;;;;;;;7.10;2.03;;;;;;;14.06;75.85;97152.78;4174658;28;20629;-86
2022/02/17 08:04:52;;;;;;;5.80;1.77;;;;;;;14.19;75.96;97156.69;4190618;28;20669;-87
2022/02/17 08:06:55;;;;;;;5.70;2.03;;;;;;;14.23;74.11;97163.28;4171895;28;20739;-86
2022/02/17 08:08:59;;;;;;;8.17;2.20;;;;;;;14.28;73.68;97178.56;4174734;28;21206;-86
2022/02/17 08:11:05;;;;;;;9.87;2.10;;;;;;;14.34;73.42;97188.47;4194225;28;20636;-86
2022/02/17 08:13:09;;;;;;;7.23;2.10;;;;;;;14.32;73.14;97159.75;4189439;28;20674;-85
2022/02/17 08:15:12;;;;;;;6.37;2.40;;;;;;;14.37;72.88;97161.91;4191107;28;20620;-85
2022/02/17 08:17:15;;;;;;;8.30;2.83;;;;;;;14.46;71.33;97140.84;4192032;28;20988;-84
2022/02/17 08:19:20;;;;;;;7.27;2.60;;;;;;;14.51;72.22;97145.63;4189460;28;20632;-85
2022/02/17 08:21:23;;;;;;;8.10;1.87;;;;;;;14.59;72.01;97176.22;4174285;28;20679;-84
2022/02/17 08:23:26;;;;;;;9.80;1.93;;;;;;;14.73;69.51;97190.59;4201131;28;21064;-85
2022/02/17 08:25:29;;;;;;;6.87;1.97;;;;;;;14.66;70.24;97179.09;4195778;28;20632;-85
2022/02/17 08:27:34;;;;;;;8.33;2.07;;;;;;;14.56;70.20;97165.22;4183001;28;20629;-85
2022/02/17 08:29:37;;;;;;;9.20;2.47;;;;;;;14.23;69.80;97181.63;4192339;28;20808;-84
2022/02/17 08:31:42;;;;;;;10.57;2.17;;;;;;;14.03;70.30;97210.75;4190416;28;21032;-86
2022/02/17 08:33:45;;;;;;;7.40;2.10;;;;;;;13.85;70.23;97196.75;4190303;28;21467;-86
2022/02/17 08:35:53;;;;;;;8.10;2.23;;;;;;;13.64;70.36;97204.03;4193782;28;20633;-86
2022/02/17 08:37:57;;;;;;;5.80;2.10;;;;;;;13.46;70.12;97209.38;4193389;28;20729;-84
2022/02/17 08:40:00;;;;;;;9.73;2.63;;;;;;;13.30;69.91;97194.25;4191139;28;20636;-85
2022/02/17 08:42:04;;;;;;;5.13;2.17;;;;;;;13.19;70.54;97214.56;4189091;28;21075;-84
2022/02/17 08:44:10;;;;;;;10.63;2.43;;;;;;;13.29;70.54;97191.78;4185003;28;20653;-84
2022/02/17 08:46:14;;;;;;;10.33;1.90;;;;;;;13.47;69.48;97174.34;4184762;28;20730;-86
2022/02/17 08:48:17;;;;;;;8.30;2.00;;;;;;;13.65;68.77;97168.16;4186485;28;20637;-83
2022/02/17 08:50:21;;;;;;;8.10;2.20;;;;;;;13.89;68.89;97202.53;4170953;28;20884;-85
2022/02/17 08:52:25;;;;;;;9.47;2.30;;;;;;;14.01;68.64;97178.59;4187356;28;20766;-84
2022/02/17 08:54:28;;;;;;;8.80;2.20;;;;;;;14.08;68.47;97203.28;4168683;28;20626;-88
2022/02/17 08:56:32;;;;;;;11.70;3.23;;;;;;;14.13;65.57;97201.03;4174576;28;21082;-86
2022/02/17 08:58:35;;;;;;;7.27;2.00;;;;;;;14.21;66.00;97209.81;4173533;28;20633;-88
2022/02/17 09:00:38;;;;;;;12.90;2.40;;;;;;;14.31;66.56;97247.31;4173724;28;20659;-88
2022/02/17 09:02:42;;;;;;;6.93;2.30;;;;;;;14.52;65.93;97224.22;4206640;28;20755;-88
2022/02/17 09:04:45;;;;;;;9.43;2.40;;;;;;;14.57;65.68;97237.72;4201088;28;20654;-86
2022/02/17 09:06:48;;;;;;;8.87;2.40;;;;;;;14.67;64.70;97239.31;4191695;28;20730;-84
2022/02/17 09:08:53;;;;;;;14.77;1.80;;;;;;;14.82;65.45;97264.03;4198951;28;20737;-85
2022/02/17 09:10:58;;;;;;;7.87;2.80;;;;;;;14.90;63.72;97237.00;4191256;28;21148;-86
2022/02/17 09:13:03;;;;;;;9.83;2.60;;;;;;;14.89;62.99;97275.59;4177127;28;21273;-85
2022/02/17 09:15:09;;;;;;;7.80;2.10;;;;;;;14.74;62.98;97263.16;4211912;28;21205;-85
2022/02/17 09:17:12;;;;;;;10.13;2.37;;;;;;;14.66;63.26;97279.66;4213124;28;20631;-85
2022/02/17 09:19:18;;;;;;;11.03;2.50;;;;;;;14.67;63.41;97255.06;4205365;28;20650;-85
2022/02/17 09:21:22;;;;;;;12.90;2.73;;;;;;;14.75;62.99;97270.88;4195919;28;20620;-85
2022/02/17 09:23:28;;;;;;;8.20;2.30;;;;;;;14.72;62.50;97263.28;4177224;28;21287;-84
2022/02/17 09:25:32;;;;;;;12.53;2.63;;;;;;;14.72;62.06;97284.28;4196361;28;20619;-84
2022/02/17 10:40:31;;;;;;;16.00;3.30;;;;;;;13.35;63.85;97387.63;4251495;27;20624;-85
2022/02/17 10:42:34;;;;;;;13.90;3.10;;;;;;;13.27;64.78;97385.69;4236997;28;20744;-86
2022/02/17 10:44:57;;;;;;;16.93;3.23;;;;;;;13.24;64.64;97404.34;4216762;28;20799;-85
2022/02/17 10:47:11;;;;;;;13.07;2.80;;;;;;;13.16;65.06;97411.22;4256594;27;20748;-86
2022/02/17 10:49:17;;;;;;;15.13;3.40;;;;;;;13.07;64.71;97412.03;4213959;28;20642;-86
2022/02/17 10:51:22;;;;;;;15.70;4.30;;;;;;;13.07;66.29;97416.47;4237158;28;20749;-86
2022/02/17 10:53:26;;;;;;;10.87;3.10;;;;;;;13.05;66.14;97416.59;4238538;28;20646;-85
2022/02/17 10:55:30;;;;;;;10.83;3.30;;;;;;;13.05;66.59;97413.97;4237925;28;21245;-87
2022/02/17 10:57:34;;;;;;;12.20;2.90;;;;;;;13.10;67.00;97410.94;4250200;27;20659;-87
2022/02/17 11:02:01;;;;;;;13.00;3.00;;;;;;;13.07;65.98;97405.97;4255426;27;20641;-85
2022/02/17 11:04:05;;;;;;;10.23;2.97;;;;;;;13.16;67.89;97405.97;4226351;28;20649;-85
2022/02/17 11:06:09;;;;;;;17.37;3.90;;;;;;;13.15;66.71;97406.94;4212907;28;20715;-85